createdAt,value
2017-06-23T00:00:08.394Z,18.1
2017-06-23T00:00:28.017Z,18.09
2017-06-23T00:00:47.335Z,18.09
2017-06-23T00:01:06.646Z,18.07
2017-06-23T00:01:25.956Z,18.04
2017-06-23T00:01:45.291Z,18.09
2017-06-23T00:02:04.600Z,18.06
2017-06-23T00:02:23.906Z,18.06
2017-06-23T00:02:42.705Z,18.06
2017-06-23T00:03:01.489Z,18.07
2017-06-23T00:03:20.808Z,18.09
2017-06-23T00:03:40.123Z,18.06
2017-06-23T00:03:59.427Z,17.95
2017-06-23T00:04:18.715Z,17.91
2017-06-23T00:04:37.535Z,17.88
2017-06-23T00:04:56.867Z,17.92
2017-06-23T00:05:15.640Z,17.95
2017-06-23T00:05:34.954Z,17.94
2017-06-23T00:05:54.356Z,17.96
2017-06-23T00:06:13.674Z,17.96
2017-06-23T00:06:32.974Z,17.96
2017-06-23T00:06:52.275Z,17.98
2017-06-23T00:07:11.612Z,17.98
2017-06-23T00:07:30.394Z,18.11
2017-06-23T00:07:49.698Z,18.02
2017-06-23T00:08:09.027Z,18.03
2017-06-23T00:08:28.322Z,17.95
2017-06-23T00:08:47.676Z,18.04
2017-06-23T00:09:06.503Z,17.98
2017-06-23T00:09:25.810Z,18.09
2017-06-23T00:09:44.616Z,18.02
2017-06-23T00:10:03.943Z,18
2017-06-23T00:10:23.243Z,17.96
2017-06-23T00:10:42.540Z,17.92
2017-06-23T00:11:01.336Z,17.92
2017-06-23T00:11:20.651Z,17.98
2017-06-23T00:11:40.055Z,17.96
2017-06-23T00:11:59.363Z,17.88
2017-06-23T00:12:18.650Z,17.88
2017-06-23T00:12:37.456Z,17.89
2017-06-23T00:12:56.762Z,17.94
2017-06-23T00:13:16.071Z,17.91
2017-06-23T00:13:34.849Z,17.98
2017-06-23T00:13:54.187Z,17.96
2017-06-23T00:14:13.507Z,17.95
2017-06-23T00:14:32.294Z,17.91
2017-06-23T00:14:51.607Z,17.96
2017-06-23T00:15:09.879Z,17.96
2017-06-23T00:15:29.174Z,17.95
2017-06-23T00:15:48.481Z,17.94
2017-06-23T00:16:07.789Z,17.98
2017-06-23T00:16:27.088Z,17.95
2017-06-23T00:16:45.871Z,17.96
2017-06-23T00:17:04.646Z,17.95
2017-06-23T00:17:23.450Z,17.91
2017-06-23T00:17:42.257Z,17.96
2017-06-23T00:18:01.549Z,17.91
2017-06-23T00:18:20.339Z,17.92
2017-06-23T00:18:39.641Z,17.95
2017-06-23T00:18:58.950Z,17.95
2017-06-23T00:19:17.759Z,17.91
2017-06-23T00:19:36.086Z,17.92
2017-06-23T00:19:55.385Z,17.89
2017-06-23T00:20:14.715Z,17.88
2017-06-23T00:20:34.036Z,17.89
2017-06-23T00:20:53.339Z,17.88
2017-06-23T00:21:12.639Z,17.88
2017-06-23T00:21:31.957Z,17.95
2017-06-23T00:21:50.757Z,17.88
2017-06-23T00:22:10.050Z,17.89
2017-06-23T00:22:28.330Z,17.89
2017-06-23T00:22:47.638Z,17.92
2017-06-23T00:23:06.945Z,17.94
2017-06-23T00:23:26.249Z,17.94
2017-06-23T00:23:44.541Z,17.85
2017-06-23T00:24:03.846Z,17.92
2017-06-23T00:24:23.130Z,17.91
2017-06-23T00:24:41.416Z,17.92
2017-06-23T00:25:00.726Z,17.98
2017-06-23T00:25:19.519Z,17.82
2017-06-23T00:25:38.834Z,17.92
2017-06-23T00:25:57.082Z,17.92
2017-06-23T00:26:16.407Z,17.84
2017-06-23T00:26:35.197Z,17.91
2017-06-23T00:26:54.515Z,17.91
2017-06-23T00:27:13.804Z,17.94
2017-06-23T00:27:32.565Z,17.87
2017-06-23T00:27:51.892Z,17.87
2017-06-23T00:28:11.252Z,17.7
2017-06-23T00:28:30.539Z,17.87
2017-06-23T00:28:49.824Z,17.91
2017-06-23T00:29:09.122Z,17.85
2017-06-23T00:29:28.436Z,17.85
2017-06-23T00:29:47.733Z,17.88
2017-06-23T00:30:07.071Z,17.84
2017-06-23T00:30:26.403Z,17.7
2017-06-23T00:30:45.199Z,17.74
2017-06-23T00:31:04.504Z,17.71
2017-06-23T00:31:23.290Z,17.71
2017-06-23T00:31:42.604Z,17.67
2017-06-23T00:32:01.394Z,17.69
2017-06-23T00:32:19.168Z,17.73
2017-06-23T00:32:38.483Z,17.77
2017-06-23T00:32:57.804Z,17.71
2017-06-23T00:33:31.079Z,17.7
2017-06-23T00:33:50.603Z,17.69
2017-06-23T00:34:09.905Z,17.66
2017-06-23T00:34:29.191Z,17.77
2017-06-23T00:34:48.492Z,17.6
2017-06-23T00:35:07.272Z,17.66
2017-06-23T00:35:26.569Z,17.66
2017-06-23T00:35:45.864Z,17.58
2017-06-23T00:36:05.184Z,17.71
2017-06-23T00:36:24.459Z,17.69
2017-06-23T00:36:43.736Z,17.74
2017-06-23T00:37:03.297Z,17.67
2017-06-23T00:37:22.618Z,17.66
2017-06-23T00:37:41.394Z,17.67
2017-06-23T00:38:00.702Z,17.66
2017-06-23T00:38:20.013Z,17.7
2017-06-23T00:38:39.330Z,17.67
2017-06-23T00:38:58.648Z,17.74
2017-06-23T00:39:17.949Z,17.67
2017-06-23T00:39:37.240Z,17.64
2017-06-23T00:39:56.227Z,17.64
2017-06-23T00:40:15.539Z,17.66
2017-06-23T00:40:34.830Z,17.67
2017-06-23T00:40:54.126Z,17.67
2017-06-23T00:41:12.929Z,17.76
2017-06-23T00:41:31.739Z,17.67
2017-06-23T00:41:51.063Z,17.7
2017-06-23T00:42:11.373Z,17.7
2017-06-23T00:42:30.662Z,17.71
2017-06-23T00:42:49.454Z,17.7
2017-06-23T00:43:08.759Z,17.74
2017-06-23T00:43:28.081Z,17.73
2017-06-23T00:43:46.366Z,17.73
2017-06-23T00:44:05.671Z,17.64
2017-06-23T00:44:23.956Z,17.73
2017-06-23T00:44:43.259Z,17.67
2017-06-23T00:45:02.547Z,17.69
2017-06-23T00:45:21.337Z,17.66
2017-06-23T00:45:40.126Z,17.67
2017-06-23T00:45:59.468Z,17.55
2017-06-23T00:46:18.251Z,17.6
2017-06-23T00:46:37.043Z,17.58
2017-06-23T00:46:56.367Z,17.58
2017-06-23T00:47:15.165Z,17.6
2017-06-23T00:47:34.469Z,17.57
2017-06-23T00:47:53.810Z,17.58
2017-06-23T00:48:12.586Z,17.54
2017-06-23T00:48:31.886Z,17.57
2017-06-23T00:48:51.212Z,17.53
2017-06-23T00:49:10.836Z,17.58
2017-06-23T00:49:30.136Z,17.57
2017-06-23T00:49:49.411Z,17.55
2017-06-23T00:50:08.172Z,17.51
2017-06-23T00:50:27.496Z,17.53
2017-06-23T00:50:46.796Z,17.51
2017-06-23T00:51:06.100Z,17.5
2017-06-23T00:51:24.880Z,17.53
2017-06-23T00:51:43.687Z,17.5
2017-06-23T00:52:02.992Z,17.51
2017-06-23T00:52:22.297Z,17.48
2017-06-23T00:52:41.623Z,17.48
2017-06-23T00:53:00.943Z,17.48
2017-06-23T00:53:19.717Z,17.46
2017-06-23T00:53:38.992Z,17.44
2017-06-23T00:53:57.788Z,17.48
2017-06-23T00:54:17.108Z,17.4
2017-06-23T00:54:36.416Z,17.4
2017-06-23T00:54:55.206Z,17.38
2017-06-23T00:55:14.528Z,17.39
2017-06-23T00:55:33.856Z,17.26
2017-06-23T00:55:53.199Z,17.36
2017-06-23T00:56:12.531Z,17.39
2017-06-23T00:56:31.851Z,17.38
2017-06-23T00:56:50.674Z,17.36
2017-06-23T00:57:09.478Z,17.38
2017-06-23T00:57:28.787Z,17.44
2017-06-23T00:57:47.071Z,17.38
2017-06-23T00:58:06.398Z,17.38
2017-06-23T00:58:25.232Z,17.3
2017-06-23T00:58:44.563Z,17.32
2017-06-23T00:59:03.341Z,17.46
2017-06-23T00:59:22.661Z,17.33
2017-06-23T00:59:41.948Z,17.3
2017-06-23T01:00:01.250Z,17.4
2017-06-23T01:00:20.059Z,17.36
2017-06-23T01:00:39.355Z,17.32
2017-06-23T01:00:58.131Z,17.33
2017-06-23T01:01:17.445Z,17.3
2017-06-23T01:01:36.737Z,17.3
2017-06-23T01:01:56.074Z,17.32
2017-06-23T01:02:15.384Z,17.36
2017-06-23T01:02:34.709Z,17.36
2017-06-23T01:02:53.508Z,17.4
2017-06-23T01:03:12.800Z,17.46
2017-06-23T01:03:32.105Z,17.47
2017-06-23T01:03:50.909Z,17.35
2017-06-23T01:04:10.203Z,17.39
2017-06-23T01:04:29.492Z,17.38
2017-06-23T01:04:48.795Z,17.33
2017-06-23T01:05:08.104Z,17.4
2017-06-23T01:05:27.437Z,17.3
2017-06-23T01:05:46.871Z,17.29
2017-06-23T01:06:06.154Z,17.38
2017-06-23T01:06:25.497Z,17.43
2017-06-23T01:06:44.778Z,17.39
2017-06-23T01:07:04.076Z,17.36
2017-06-23T01:07:23.391Z,17.38
2017-06-23T01:07:42.721Z,17.38
2017-06-23T01:08:02.024Z,17.33
2017-06-23T01:08:21.338Z,17.38
2017-06-23T01:08:40.652Z,17.36
2017-06-23T01:08:59.943Z,17.35
2017-06-23T01:09:18.211Z,17.39
2017-06-23T01:09:37.495Z,17.38
2017-06-23T01:09:56.788Z,17.43
2017-06-23T01:10:15.576Z,17.43
2017-06-23T01:10:34.878Z,17.36
2017-06-23T01:10:54.206Z,17.38
2017-06-23T01:11:12.976Z,17.38
2017-06-23T01:11:31.774Z,17.47
2017-06-23T01:11:50.656Z,17.35
2017-06-23T01:12:09.651Z,17.38
2017-06-23T01:12:28.987Z,17.38
2017-06-23T01:12:47.783Z,17.33
2017-06-23T01:13:06.611Z,17.4
2017-06-23T01:13:25.949Z,17.38
2017-06-23T01:13:45.339Z,17.33
2017-06-23T01:14:04.164Z,17.32
2017-06-23T01:14:23.488Z,17.25
2017-06-23T01:14:42.801Z,17.3
2017-06-23T01:15:02.124Z,17.33
2017-06-23T01:15:21.433Z,17.28
2017-06-23T01:15:40.786Z,17.33
2017-06-23T01:16:00.107Z,17.39
2017-06-23T01:16:19.411Z,17.32
2017-06-23T01:16:38.196Z,17.26
2017-06-23T01:16:57.561Z,17.35
2017-06-23T01:17:16.363Z,17.29
2017-06-23T01:17:35.709Z,17.35
2017-06-23T01:17:54.488Z,17.3
2017-06-23T01:18:13.798Z,17.28
2017-06-23T01:18:33.106Z,17.38
2017-06-23T01:18:52.412Z,17.33
2017-06-23T01:19:11.189Z,17.36
2017-06-23T01:19:30.546Z,17.3
2017-06-23T01:19:49.828Z,17.32
2017-06-23T01:20:09.131Z,17.38
2017-06-23T01:20:28.430Z,17.3
2017-06-23T01:20:47.733Z,17.33
2017-06-23T01:21:06.531Z,17.36
2017-06-23T01:21:25.320Z,17.26
2017-06-23T01:21:44.620Z,17.17
2017-06-23T01:22:03.938Z,17.32
2017-06-23T01:22:22.721Z,17.3
2017-06-23T01:22:42.026Z,17.21
2017-06-23T01:23:01.339Z,17.21
2017-06-23T01:23:20.642Z,17.28
2017-06-23T01:23:39.934Z,17.21
2017-06-23T01:23:59.207Z,17.28
2017-06-23T01:24:18.508Z,17.29
2017-06-23T01:24:37.808Z,17.21
2017-06-23T01:24:57.124Z,17.29
2017-06-23T01:25:15.904Z,17.26
2017-06-23T01:25:35.209Z,17.29
2017-06-23T01:25:54.009Z,17.3
2017-06-23T01:26:13.340Z,17.21
2017-06-23T01:26:32.616Z,17.13
2017-06-23T01:26:51.908Z,17.28
2017-06-23T01:27:10.730Z,17.26
2017-06-23T01:27:30.042Z,17.2
2017-06-23T01:27:48.839Z,17.29
2017-06-23T01:28:08.117Z,17.29
2017-06-23T01:28:27.426Z,17.28
2017-06-23T01:28:46.711Z,17.25
2017-06-23T01:29:05.516Z,17.1
2017-06-23T01:29:24.804Z,17.15
2017-06-23T01:29:44.121Z,17.23
2017-06-23T01:30:03.429Z,17.07
2017-06-23T01:30:22.744Z,17.17
2017-06-23T01:30:42.056Z,17.26
2017-06-23T01:31:01.400Z,17.23
2017-06-23T01:31:20.729Z,17.26
2017-06-23T01:31:39.537Z,17.13
2017-06-23T01:31:58.864Z,17.26
2017-06-23T01:32:17.635Z,17.21
2017-06-23T01:32:36.441Z,17.13
2017-06-23T01:32:55.738Z,17.13
2017-06-23T01:33:15.017Z,17.17
2017-06-23T01:33:33.795Z,17.21
2017-06-23T01:33:53.099Z,17.26
2017-06-23T01:34:11.376Z,17.23
2017-06-23T01:34:30.680Z,17.13
2017-06-23T01:34:50.015Z,17.13
2017-06-23T01:35:09.317Z,17.14
2017-06-23T01:35:28.626Z,17.23
2017-06-23T01:35:47.939Z,17.15
2017-06-23T01:36:07.237Z,17.18
2017-06-23T01:36:25.503Z,17.21
2017-06-23T01:36:44.830Z,17.21
2017-06-23T01:37:04.144Z,17.2
2017-06-23T01:37:23.434Z,17.18
2017-06-23T01:37:42.752Z,17.2
2017-06-23T01:38:01.544Z,17.21
2017-06-23T01:38:20.852Z,17.18
2017-06-23T01:38:40.158Z,17.13
2017-06-23T01:38:59.457Z,17.08
2017-06-23T01:39:18.774Z,17.14
2017-06-23T01:39:38.093Z,17.14
2017-06-23T01:39:56.875Z,17.14
2017-06-23T01:40:15.659Z,17.07
2017-06-23T01:40:33.452Z,17.03
2017-06-23T01:40:52.758Z,17.05
2017-06-23T01:41:11.545Z,17.1
2017-06-23T01:41:30.868Z,17.05
2017-06-23T01:41:49.666Z,17.17
2017-06-23T01:42:08.989Z,17.14
2017-06-23T01:42:28.294Z,17.05
2017-06-23T01:42:47.577Z,17.05
2017-06-23T01:43:06.397Z,17.03
2017-06-23T01:43:25.717Z,16.95
2017-06-23T01:43:45.019Z,17.07
2017-06-23T01:44:04.310Z,17.05
2017-06-23T01:44:23.102Z,17
2017-06-23T01:44:42.420Z,17.07
2017-06-23T01:45:01.702Z,17
2017-06-23T01:45:21.009Z,17
2017-06-23T01:45:40.285Z,17.07
2017-06-23T01:45:59.576Z,17.05
2017-06-23T01:46:18.344Z,17.07
2017-06-23T01:46:37.622Z,17.1
2017-06-23T01:46:56.923Z,17.05
2017-06-23T01:47:16.226Z,17.07
2017-06-23T01:47:35.526Z,17.1
2017-06-23T01:47:54.837Z,17.1
2017-06-23T01:48:14.154Z,16.95
2017-06-23T01:48:32.956Z,17.1
2017-06-23T01:48:51.748Z,17.05
2017-06-23T01:49:11.074Z,17.11
2017-06-23T01:49:30.381Z,17.07
2017-06-23T01:49:49.705Z,17.08
2017-06-23T01:50:08.998Z,17.08
2017-06-23T01:50:28.315Z,17.11
2017-06-23T01:50:47.655Z,16.93
2017-06-23T01:51:06.952Z,17.05
2017-06-23T01:51:25.739Z,17.05
2017-06-23T01:51:45.031Z,17.03
2017-06-23T01:52:04.346Z,17.13
2017-06-23T01:52:23.145Z,17.07
2017-06-23T01:52:42.440Z,17.05
2017-06-23T01:53:01.741Z,16.99
2017-06-23T01:53:21.033Z,17.05
2017-06-23T01:53:40.332Z,17.1
2017-06-23T01:53:59.614Z,17.05
2017-06-23T01:54:18.402Z,17.02
2017-06-23T01:54:37.696Z,17.1
2017-06-23T01:54:56.505Z,17.08
2017-06-23T01:55:15.835Z,16.98
2017-06-23T01:55:35.137Z,17.07
2017-06-23T01:55:54.459Z,17.05
2017-06-23T01:56:13.785Z,16.95
2017-06-23T01:56:33.088Z,17.1
2017-06-23T01:56:52.378Z,17.05
2017-06-23T01:57:11.156Z,17.03
2017-06-23T01:57:30.454Z,17.05
2017-06-23T01:57:49.783Z,17.1
2017-06-23T01:58:09.082Z,17.07
2017-06-23T01:58:28.390Z,17.03
2017-06-23T01:58:47.662Z,17.05
2017-06-23T01:59:06.962Z,17.02
2017-06-23T01:59:26.283Z,17.03
2017-06-23T01:59:45.602Z,16.95
2017-06-23T02:00:03.894Z,17.07
2017-06-23T02:00:23.216Z,17
2017-06-23T02:00:42.501Z,17.1
2017-06-23T02:01:01.817Z,17.02
2017-06-23T02:01:21.116Z,17.1
2017-06-23T02:01:40.429Z,16.99
2017-06-23T02:01:59.712Z,16.98
2017-06-23T02:02:18.521Z,16.98
2017-06-23T02:02:37.833Z,16.99
2017-06-23T02:02:57.123Z,16.93
2017-06-23T02:03:17.216Z,16.95
2017-06-23T02:03:36.492Z,16.98
2017-06-23T02:03:55.300Z,16.9
2017-06-23T02:04:14.677Z,16.96
2017-06-23T02:04:33.477Z,16.93
2017-06-23T02:04:52.254Z,16.89
2017-06-23T02:05:11.555Z,16.93
2017-06-23T02:05:30.562Z,16.96
2017-06-23T02:05:49.854Z,16.96
2017-06-23T02:06:09.139Z,16.89
2017-06-23T02:06:28.442Z,16.9
2017-06-23T02:06:47.733Z,16.93
2017-06-23T02:07:06.503Z,16.82
2017-06-23T02:07:25.818Z,16.95
2017-06-23T02:07:44.594Z,16.99
2017-06-23T02:08:03.890Z,16.88
2017-06-23T02:08:23.222Z,16.85
2017-06-23T02:08:42.520Z,16.88
2017-06-23T02:09:01.844Z,16.85
2017-06-23T02:09:21.145Z,16.85
2017-06-23T02:09:40.425Z,16.9
2017-06-23T02:09:59.707Z,16.84
2017-06-23T02:10:19.001Z,16.84
2017-06-23T02:10:38.292Z,16.81
2017-06-23T02:10:57.581Z,16.84
2017-06-23T02:11:16.874Z,16.82
2017-06-23T02:11:36.177Z,16.89
2017-06-23T02:11:55.475Z,16.96
2017-06-23T02:12:14.771Z,16.85
2017-06-23T02:12:33.549Z,16.89
2017-06-23T02:12:52.370Z,16.93
2017-06-23T02:13:11.177Z,16.96
2017-06-23T02:13:30.497Z,16.98
2017-06-23T02:13:49.842Z,16.84
2017-06-23T02:14:09.137Z,16.85
2017-06-23T02:14:28.423Z,16.89
2017-06-23T02:14:47.748Z,16.92
2017-06-23T02:15:07.049Z,16.89
2017-06-23T02:15:26.365Z,16.81
2017-06-23T02:15:45.672Z,16.92
2017-06-23T02:16:04.986Z,16.9
2017-06-23T02:16:24.286Z,16.99
2017-06-23T02:16:43.070Z,16.92
2017-06-23T02:17:02.373Z,16.96
2017-06-23T02:17:21.671Z,16.92
2017-06-23T02:17:40.980Z,16.88
2017-06-23T02:18:00.276Z,16.92
2017-06-23T02:18:19.544Z,16.88
2017-06-23T02:18:38.873Z,16.9
2017-06-23T02:18:58.152Z,16.81
2017-06-23T02:19:17.442Z,16.92
2017-06-23T02:19:36.748Z,16.9
2017-06-23T02:19:56.048Z,16.92
2017-06-23T02:20:15.326Z,16.9
2017-06-23T02:20:34.640Z,16.92
2017-06-23T02:20:53.940Z,16.95
2017-06-23T02:21:13.256Z,16.93
2017-06-23T02:21:32.563Z,17
2017-06-23T02:21:51.890Z,16.93
2017-06-23T02:22:11.173Z,17
2017-06-23T02:22:29.980Z,16.99
2017-06-23T02:22:49.315Z,16.95
2017-06-23T02:23:08.663Z,16.96
2017-06-23T02:23:27.462Z,16.96
2017-06-23T02:23:46.805Z,17
2017-06-23T02:24:06.161Z,16.89
2017-06-23T02:24:25.478Z,16.88
2017-06-23T02:24:44.772Z,16.95
2017-06-23T02:25:04.088Z,16.92
2017-06-23T02:25:23.389Z,16.92
2017-06-23T02:25:42.195Z,16.95
2017-06-23T02:26:01.529Z,16.96
2017-06-23T02:26:20.305Z,16.96
2017-06-23T02:26:39.618Z,16.95
2017-06-23T02:26:58.418Z,16.88
2017-06-23T02:27:17.187Z,16.89
2017-06-23T02:27:35.973Z,16.89
2017-06-23T02:27:55.280Z,16.93
2017-06-23T02:28:14.581Z,16.92
2017-06-23T02:28:33.877Z,16.96
2017-06-23T02:28:53.180Z,16.96
2017-06-23T02:29:12.497Z,16.95
2017-06-23T02:29:31.827Z,16.93
2017-06-23T02:29:51.122Z,16.9
2017-06-23T02:30:09.983Z,17.05
2017-06-23T02:30:29.275Z,16.98
2017-06-23T02:30:48.565Z,16.99
2017-06-23T02:31:07.862Z,16.92
2017-06-23T02:31:27.184Z,16.92
2017-06-23T02:31:45.980Z,17
2017-06-23T02:32:05.274Z,16.92
2017-06-23T02:32:24.565Z,16.96
2017-06-23T02:32:43.357Z,17.03
2017-06-23T02:33:02.662Z,16.95
2017-06-23T02:33:21.985Z,16.92
2017-06-23T02:33:40.802Z,16.95
2017-06-23T02:33:59.581Z,16.92
2017-06-23T02:34:18.874Z,17.05
2017-06-23T02:34:38.164Z,16.96
2017-06-23T02:34:56.447Z,16.98
2017-06-23T02:35:15.772Z,16.93
2017-06-23T02:35:35.109Z,16.95
2017-06-23T02:35:54.424Z,16.96
2017-06-23T02:36:13.226Z,16.96
2017-06-23T02:36:32.552Z,16.95
2017-06-23T02:36:51.372Z,16.95
2017-06-23T02:37:10.660Z,16.96
2017-06-23T02:37:29.429Z,17
2017-06-23T02:37:48.724Z,16.96
2017-06-23T02:38:08.039Z,16.96
2017-06-23T02:38:26.298Z,16.98
2017-06-23T02:38:45.614Z,16.96
2017-06-23T02:39:04.921Z,16.96
2017-06-23T02:39:24.210Z,17.05
2017-06-23T02:39:43.495Z,16.98
2017-06-23T02:40:02.265Z,17.03
2017-06-23T02:40:21.653Z,17.05
2017-06-23T02:40:40.979Z,17.02
2017-06-23T02:40:59.760Z,17
2017-06-23T02:41:18.546Z,16.96
2017-06-23T02:41:37.854Z,16.96
2017-06-23T02:41:57.143Z,16.95
2017-06-23T02:42:16.434Z,17.1
2017-06-23T02:42:35.734Z,17.1
2017-06-23T02:42:55.048Z,17.07
2017-06-23T02:43:14.376Z,17.1
2017-06-23T02:43:33.664Z,17.05
2017-06-23T02:43:52.962Z,17.05
2017-06-23T02:44:12.253Z,17.11
2017-06-23T02:44:31.552Z,17.07
2017-06-23T02:44:50.873Z,16.95
2017-06-23T02:45:10.186Z,16.95
2017-06-23T02:45:29.488Z,17.07
2017-06-23T02:45:48.308Z,17.03
2017-06-23T02:46:07.616Z,16.95
2017-06-23T02:46:26.921Z,16.99
2017-06-23T02:46:46.242Z,16.92
2017-06-23T02:47:05.559Z,16.96
2017-06-23T02:47:24.859Z,16.98
2017-06-23T02:47:43.677Z,16.93
2017-06-23T02:48:02.988Z,17
2017-06-23T02:48:22.328Z,16.96
2017-06-23T02:48:41.635Z,16.96
2017-06-23T02:49:00.944Z,17
2017-06-23T02:49:19.740Z,16.93
2017-06-23T02:49:38.553Z,16.96
2017-06-23T02:49:57.864Z,16.96
2017-06-23T02:50:17.169Z,16.96
2017-06-23T02:50:35.942Z,16.89
2017-06-23T02:50:55.276Z,16.92
2017-06-23T02:51:14.588Z,16.89
2017-06-23T02:51:33.356Z,16.88
2017-06-23T02:51:52.163Z,16.81
2017-06-23T02:52:11.460Z,16.84
2017-06-23T02:52:30.760Z,16.89
2017-06-23T02:52:50.082Z,16.81
2017-06-23T02:53:09.364Z,16.89
2017-06-23T02:53:28.686Z,16.88
2017-06-23T02:53:47.480Z,16.85
2017-06-23T02:54:06.811Z,16.9
2017-06-23T02:54:40.104Z,16.81
2017-06-23T02:54:59.433Z,16.84
2017-06-23T02:55:18.749Z,16.82
2017-06-23T02:55:37.545Z,16.88
2017-06-23T02:55:56.323Z,16.85
2017-06-23T02:56:15.113Z,16.81
2017-06-23T02:56:34.436Z,16.88
2017-06-23T02:56:53.199Z,16.8
2017-06-23T02:57:12.508Z,16.75
2017-06-23T02:57:31.323Z,16.78
2017-06-23T02:57:50.089Z,16.78
2017-06-23T02:58:09.379Z,16.81
2017-06-23T02:58:28.682Z,16.77
2017-06-23T02:58:47.966Z,16.78
2017-06-23T02:59:07.296Z,16.75
2017-06-23T02:59:26.599Z,16.81
2017-06-23T02:59:45.900Z,16.78
2017-06-23T03:00:05.193Z,16.81
2017-06-23T03:00:24.479Z,16.81
2017-06-23T03:00:43.792Z,16.84
2017-06-23T03:01:03.091Z,16.84
2017-06-23T03:01:22.393Z,16.88
2017-06-23T03:01:41.700Z,16.88
2017-06-23T03:02:00.479Z,16.84
2017-06-23T03:02:19.240Z,16.84
2017-06-23T03:02:38.523Z,16.89
2017-06-23T03:02:57.858Z,16.82
2017-06-23T03:03:17.161Z,16.84
2017-06-23T03:03:36.483Z,16.78
2017-06-23T03:03:55.791Z,16.78
2017-06-23T03:04:15.073Z,16.8
2017-06-23T03:04:34.364Z,16.8
2017-06-23T03:04:53.658Z,16.85
2017-06-23T03:05:12.459Z,16.84
2017-06-23T03:05:31.774Z,16.8
2017-06-23T03:05:50.586Z,16.82
2017-06-23T03:06:09.382Z,16.8
2017-06-23T03:06:28.647Z,16.85
2017-06-23T03:06:47.960Z,16.81
2017-06-23T03:07:06.234Z,16.78
2017-06-23T03:07:25.553Z,16.81
2017-06-23T03:07:44.833Z,16.78
2017-06-23T03:08:04.126Z,16.77
2017-06-23T03:08:23.442Z,16.73
2017-06-23T03:08:42.744Z,16.77
2017-06-23T03:09:02.029Z,16.75
2017-06-23T03:09:21.325Z,16.77
2017-06-23T03:09:40.635Z,16.71
2017-06-23T03:09:59.939Z,16.75
2017-06-23T03:10:19.291Z,16.75
2017-06-23T03:10:38.600Z,16.75
2017-06-23T03:10:57.901Z,16.77
2017-06-23T03:11:17.184Z,16.74
2017-06-23T03:11:36.509Z,16.67
2017-06-23T03:11:55.832Z,16.67
2017-06-23T03:12:15.135Z,16.75
2017-06-23T03:12:33.936Z,16.74
2017-06-23T03:12:53.235Z,16.8
2017-06-23T03:13:12.547Z,16.71
2017-06-23T03:13:31.854Z,16.78
2017-06-23T03:13:51.168Z,16.67
2017-06-23T03:14:10.475Z,16.81
2017-06-23T03:14:29.776Z,16.66
2017-06-23T03:14:49.091Z,16.77
2017-06-23T03:15:08.392Z,16.81
2017-06-23T03:15:27.726Z,16.78
2017-06-23T03:15:46.528Z,16.66
2017-06-23T03:16:05.810Z,16.66
2017-06-23T03:16:25.119Z,16.77
2017-06-23T03:16:43.922Z,16.75
2017-06-23T03:17:02.713Z,16.78
2017-06-23T03:17:22.020Z,16.67
2017-06-23T03:17:41.325Z,16.74
2017-06-23T03:18:00.599Z,16.67
2017-06-23T03:18:19.909Z,16.75
2017-06-23T03:18:39.197Z,16.75
2017-06-23T03:18:58.482Z,16.67
2017-06-23T03:19:17.793Z,16.81
2017-06-23T03:19:36.567Z,16.82
2017-06-23T03:19:55.333Z,16.71
2017-06-23T03:20:14.089Z,16.77
2017-06-23T03:20:33.389Z,16.8
2017-06-23T03:20:52.167Z,16.66
2017-06-23T03:21:11.463Z,16.67
2017-06-23T03:21:30.757Z,16.73
2017-06-23T03:21:49.532Z,16.73
2017-06-23T03:22:08.324Z,16.67
2017-06-23T03:22:27.627Z,16.67
2017-06-23T03:22:46.948Z,16.74
2017-06-23T03:23:06.260Z,16.71
2017-06-23T03:23:25.550Z,16.66
2017-06-23T03:23:44.379Z,16.7
2017-06-23T03:24:03.726Z,16.75
2017-06-23T03:24:22.522Z,16.71
2017-06-23T03:24:41.851Z,16.67
2017-06-23T03:25:00.111Z,16.71
2017-06-23T03:25:19.403Z,16.77
2017-06-23T03:25:38.720Z,16.74
2017-06-23T03:25:58.003Z,16.78
2017-06-23T03:26:16.803Z,16.75
2017-06-23T03:26:36.140Z,16.74
2017-06-23T03:26:55.442Z,16.67
2017-06-23T03:27:14.737Z,16.75
2017-06-23T03:27:34.051Z,16.75
2017-06-23T03:27:53.337Z,16.67
2017-06-23T03:28:12.634Z,16.66
2017-06-23T03:28:31.422Z,16.77
2017-06-23T03:28:50.741Z,16.74
2017-06-23T03:29:10.051Z,16.77
2017-06-23T03:29:29.360Z,16.7
2017-06-23T03:29:48.660Z,16.7
2017-06-23T03:30:07.944Z,16.73
2017-06-23T03:30:27.232Z,16.66
2017-06-23T03:30:46.550Z,16.63
2017-06-23T03:31:05.323Z,16.74
2017-06-23T03:31:24.637Z,16.73
2017-06-23T03:31:43.923Z,16.65
2017-06-23T03:32:03.230Z,16.73
2017-06-23T03:32:22.534Z,16.66
2017-06-23T03:32:41.896Z,16.65
2017-06-23T03:33:01.181Z,16.71
2017-06-23T03:33:20.476Z,16.7
2017-06-23T03:33:39.805Z,16.66
2017-06-23T03:33:59.142Z,16.74
2017-06-23T03:34:18.451Z,16.73
2017-06-23T03:34:37.732Z,16.7
2017-06-23T03:34:57.054Z,16.71
2017-06-23T03:35:16.356Z,16.71
2017-06-23T03:35:35.131Z,16.7
2017-06-23T03:35:54.427Z,16.66
2017-06-23T03:36:13.725Z,16.73
2017-06-23T03:36:32.514Z,16.73
2017-06-23T03:36:51.819Z,16.74
2017-06-23T03:37:11.164Z,16.74
2017-06-23T03:37:30.481Z,16.7
2017-06-23T03:37:49.784Z,16.77
2017-06-23T03:38:09.112Z,16.66
2017-06-23T03:38:28.418Z,16.77
2017-06-23T03:38:47.203Z,16.7
2017-06-23T03:39:06.516Z,16.71
2017-06-23T03:39:25.808Z,16.67
2017-06-23T03:39:44.587Z,16.66
2017-06-23T03:40:03.361Z,16.67
2017-06-23T03:40:22.676Z,16.7
2017-06-23T03:40:41.961Z,16.7
2017-06-23T03:41:01.262Z,16.67
2017-06-23T03:41:20.563Z,16.65
2017-06-23T03:41:39.893Z,16.71
2017-06-23T03:41:59.252Z,16.71
2017-06-23T03:42:18.068Z,16.73
2017-06-23T03:42:36.871Z,16.66
2017-06-23T03:42:56.198Z,16.74
2017-06-23T03:43:15.519Z,16.73
2017-06-23T03:43:34.827Z,16.73
2017-06-23T03:43:54.129Z,16.75
2017-06-23T03:44:13.420Z,16.74
2017-06-23T03:44:32.716Z,16.71
2017-06-23T03:44:51.490Z,16.63
2017-06-23T03:45:10.775Z,16.71
2017-06-23T03:45:30.077Z,16.71
2017-06-23T03:45:48.865Z,16.67
2017-06-23T03:46:08.159Z,16.73
2017-06-23T03:46:26.939Z,16.7
2017-06-23T03:46:45.700Z,16.77
2017-06-23T03:47:05.007Z,16.75
2017-06-23T03:47:23.790Z,16.7
2017-06-23T03:47:42.593Z,16.77
2017-06-23T03:48:01.894Z,16.71
2017-06-23T03:48:21.226Z,16.71
2017-06-23T03:48:40.536Z,16.62
2017-06-23T03:48:59.852Z,16.7
2017-06-23T03:49:19.170Z,16.7
2017-06-23T03:49:38.471Z,16.75
2017-06-23T03:49:57.271Z,16.66
2017-06-23T03:50:16.571Z,16.65
2017-06-23T03:50:35.880Z,16.71
2017-06-23T03:50:55.205Z,16.65
2017-06-23T03:51:13.987Z,16.67
2017-06-23T03:51:33.287Z,16.71
2017-06-23T03:51:52.645Z,16.7
2017-06-23T03:52:11.447Z,16.75
2017-06-23T03:52:30.790Z,16.7
2017-06-23T03:52:50.083Z,16.74
2017-06-23T03:53:09.419Z,16.71
2017-06-23T03:53:28.212Z,16.71
2017-06-23T03:53:47.511Z,16.74
2017-06-23T03:54:06.818Z,16.75
2017-06-23T03:54:26.099Z,16.77
2017-06-23T03:54:45.394Z,16.67
2017-06-23T03:55:04.702Z,16.63
2017-06-23T03:55:24.001Z,16.65
2017-06-23T03:55:43.302Z,16.65
2017-06-23T03:56:02.616Z,16.5
2017-06-23T03:56:21.932Z,16.65
2017-06-23T03:56:41.248Z,16.53
2017-06-23T03:57:00.587Z,16.59
2017-06-23T03:57:19.872Z,16.63
2017-06-23T03:57:39.189Z,16.6
2017-06-23T03:57:58.484Z,16.6
2017-06-23T03:58:17.790Z,16.57
2017-06-23T03:58:36.553Z,16.55
2017-06-23T03:58:55.904Z,16.55
2017-06-23T03:59:15.209Z,16.6
2017-06-23T03:59:33.989Z,16.56
2017-06-23T03:59:53.273Z,16.53
2017-06-23T04:00:12.557Z,16.63
2017-06-23T04:00:31.341Z,16.57
2017-06-23T04:00:50.155Z,16.66
2017-06-23T04:01:09.444Z,16.59
2017-06-23T04:01:28.749Z,16.65
2017-06-23T04:01:47.555Z,16.55
2017-06-23T04:02:06.882Z,16.56
2017-06-23T04:02:26.193Z,16.55
2017-06-23T04:02:44.451Z,16.65
2017-06-23T04:03:03.759Z,16.6
2017-06-23T04:03:22.567Z,16.57
2017-06-23T04:03:41.865Z,16.63
2017-06-23T04:04:01.145Z,16.62
2017-06-23T04:04:20.411Z,16.57
2017-06-23T04:04:39.712Z,16.53
2017-06-23T04:04:59.027Z,16.57
2017-06-23T04:05:18.333Z,16.59
2017-06-23T04:05:37.616Z,16.7
2017-06-23T04:05:56.444Z,16.56
2017-06-23T04:06:15.747Z,16.56
2017-06-23T04:06:35.059Z,16.5
2017-06-23T04:06:54.369Z,16.59
2017-06-23T04:07:13.688Z,16.6
2017-06-23T04:07:33.012Z,16.52
2017-06-23T04:07:52.331Z,16.57
2017-06-23T04:08:11.627Z,16.53
2017-06-23T04:08:30.934Z,16.56